Carolina, PR

1:04 AM AST on September 17, 2014 (GMT -0400)
King | Change Station
CLOSE
Current Station
Airport
Location: St. Thomas,
Elevation: 23 ft
Nearby Weather Stations

Elev 23 ft 18.34 °N, 64.97 °W | Updated 1 hour ago

Clear
Clear
79 °F
Feels Like 79 °F
N
4
Wind Variable Wind from ENE

Today
High -- | Low -- °F
--% Chance of Precip.
Yesterday
High -- | Low -- °F
Precip. -- in
6:12 AM 6:24 PM
Last Quarter, 39% visible
Pressure 29.99 in
Visibility 10.0 miles
Clouds Clear
Dew Point 72 °F
Humidity 79%
Rainfall 0.00 in
Snow Depth Not available.
UV 0 out of 12
Pollen Not available.
Air Quality Not available.
Flu Activity Not available.
METAR TIST 170353Z 07003KT 10SM CLR 26/22 A2998 RMK AO2 SLP154 T02610222 403060244

More Conditions Fewer Conditions

Pressure 29.99 in
Visibility 10.0 miles
Clouds Clear
Dew Point 72 °F
Humidity 79%
Rainfall 0.00 in
Snow Depth Not available.
UV 0 out of 12
Pollen Not available.
Air Quality Not available.
Flu Activity Not available.
METAR TIST 170353Z 07003KT 10SM CLR 26/22 A2998 RMK AO2 SLP154 T02610222 403060244

More Conditions Fewer Conditions

10-Day Weather Forecast

Almanac

Astronomy

Sep. 17, 2014 Rise Set
Actual Time 6:12 AM AST 6:24 PM AST
Civil Twilight 5:50 AM AST 6:46 PM AST
Nautical Twilight 5:24 AM AST 7:11 PM AST
Astronomical Twilight 4:59 AM AST 7:37 PM AST
Moon 12:43 AM AST 1:57 PM AST
Length of Visible Light 12h 56m
Length of Day
12h 12m
Tomorrow will be 1m 2s shorter.
Last Quarter, 39% of the Moon is Illuminated
Today
Last Quarter
Sep 24
New
Oct 1
First Quarter
Oct 8
Full
Oct 15
Last Quarter

Community

WunderPhotos

Upload Photos

1,753,967 photos uploaded!

Nearby

Snow Depth

Station Depth Elevation
No new snow has been reported.

Earthquake Activity

City Distance Mag. Time & Date
No recent earthquake activity has been reported nearby.
Minimum magnitude displayed is 2.5.

Coastal Water Temperatures

Place Temperature
San Juan, PR 84.9 °F
Mayaguez, PR 84.9 °F
Esperanza, PR 84.9 °F

Nearby Weather Stations